createdAt,value
2023-03-06T00:00:14.204Z,99842.4140625
2023-03-06T00:01:14.503Z,99842.12890625
2023-03-06T00:02:14.304Z,99838.35546875
2023-03-06T00:03:14.512Z,99838.34765625
2023-03-06T00:04:14.258Z,99836.01171875
2023-03-06T00:05:14.261Z,99834.4921875
2023-03-06T00:06:14.393Z,99834.59765625
2023-03-06T00:07:16.618Z,99834.2421875
2023-03-06T00:08:14.533Z,99834.77734375
2023-03-06T00:09:14.272Z,99833.3359375
2023-03-06T00:10:15.254Z,99831.7578125
2023-03-06T00:11:14.212Z,99830.625
2023-03-06T00:12:14.204Z,99831.16015625
2023-03-06T00:13:14.523Z,99831.70703125
2023-03-06T00:14:14.266Z,99833.91796875
2023-03-06T00:15:14.172Z,99833.9921875
2023-03-06T00:16:14.554Z,99830.33984375
2023-03-06T00:17:14.240Z,99831.34375
2023-03-06T00:18:18.935Z,99830.640625
2023-03-06T00:19:14.179Z,99828.6953125
2023-03-06T00:20:14.296Z,99827.47265625
2023-03-06T00:21:14.307Z,99826.40625
2023-03-06T00:22:14.249Z,99824.953125
2023-03-06T00:23:14.233Z,99829.02734375
2023-03-06T00:24:14.509Z,99825.79296875
2023-03-06T00:25:14.154Z,99824.22265625
2023-03-06T00:26:14.274Z,99823.76953125
2023-03-06T00:27:14.173Z,99822.06640625
2023-03-06T00:28:14.228Z,99821.1953125
2023-03-06T00:29:16.530Z,99821.859375
2023-03-06T00:30:14.259Z,99823.1640625
2023-03-06T00:31:14.692Z,99820.265625
2023-03-06T00:32:14.327Z,99815.14453125
2023-03-06T00:33:14.154Z,99819.515625
2023-03-06T00:34:14.509Z,99819.625
2023-03-06T00:35:14.222Z,99814.25
2023-03-06T00:36:14.215Z,99810.18359375
2023-03-06T00:37:14.282Z,99811.921875
2023-03-06T00:38:14.251Z,99810.59765625
2023-03-06T00:39:14.602Z,99810.890625
2023-03-06T00:40:19.924Z,99809.328125
2023-03-06T00:41:14.128Z,99807.66796875
2023-03-06T00:42:14.262Z,99811.13671875
2023-03-06T00:43:14.147Z,99812.2265625
2023-03-06T00:44:14.505Z,99809.9375
2023-03-06T00:45:14.146Z,99803.83984375
2023-03-06T00:46:14.503Z,99804.46875
2023-03-06T00:47:14.263Z,99805.9140625
2023-03-06T00:48:14.272Z,99801.6328125
2023-03-06T00:49:14.537Z,99799.24609375
2023-03-06T00:50:14.253Z,99795.42578125
2023-03-06T00:51:16.473Z,99800.46484375
2023-03-06T00:52:14.250Z,99793.0234375
2023-03-06T00:53:14.135Z,99795.57421875
2023-03-06T00:54:14.500Z,99790.63671875
2023-03-06T00:55:14.183Z,99790.2578125
2023-03-06T00:56:14.155Z,99789.00390625
2023-03-06T00:57:14.263Z,99791.09765625
2023-03-06T00:58:14.257Z,99787.921875
2023-03-06T00:59:14.505Z,99787.42578125
2023-03-06T01:00:14.163Z,99783.58984375
2023-03-06T01:01:14.247Z,99783.75
2023-03-06T01:02:19.079Z,99781.9765625
2023-03-06T01:03:14.146Z,99775.140625
2023-03-06T01:04:14.213Z,99778.6015625
2023-03-06T01:05:14.496Z,99775.828125
2023-03-06T01:06:14.252Z,99774.76171875
2023-03-06T01:07:14.261Z,99773.26171875
2023-03-06T01:08:14.287Z,99772.98046875
2023-03-06T01:09:14.264Z,99770.84765625
2023-03-06T01:10:15.248Z,99767.578125
2023-03-06T01:11:14.119Z,99770.55078125
2023-03-06T01:12:14.158Z,99771.234375
2023-03-06T01:13:16.587Z,99768.359375
2023-03-06T01:14:14.249Z,99767.51171875
2023-03-06T01:15:14.266Z,99765.265625
2023-03-06T01:16:14.316Z,99766.57421875
2023-03-06T01:17:14.201Z,99763.5390625
2023-03-06T01:18:14.137Z,99762.83984375
2023-03-06T01:19:14.749Z,99760.55859375
2023-03-06T01:20:14.492Z,99763.00390625
2023-03-06T01:21:14.243Z,99759.5859375
2023-03-06T01:22:14.223Z,99758.7265625
2023-03-06T01:23:14.146Z,99756.07421875
2023-03-06T01:24:16.554Z,99751.33984375
2023-03-06T01:25:14.255Z,99749.44140625
2023-03-06T01:26:14.218Z,99750.03125
2023-03-06T01:27:14.816Z,99746.671875
2023-03-06T01:28:14.265Z,99745.5234375
2023-03-06T01:29:14.205Z,99743.04296875
2023-03-06T01:30:14.510Z,99741.25
2023-03-06T01:31:14.476Z,99741.8984375
2023-03-06T01:32:14.526Z,99742.2109375
2023-03-06T01:33:14.276Z,99741.6484375
2023-03-06T01:34:14.126Z,99739.4296875
2023-03-06T01:35:19.054Z,99743.171875
2023-03-06T01:36:14.215Z,99739.66796875
2023-03-06T01:37:14.201Z,99738.69921875
2023-03-06T01:38:14.274Z,99733.46875
2023-03-06T01:39:14.260Z,99736.0625
2023-03-06T01:40:14.506Z,99732.09375
2023-03-06T01:41:14.114Z,99730.48046875
2023-03-06T01:42:14.160Z,99727.78125
2023-03-06T01:43:14.330Z,99728.22265625
2023-03-06T01:44:14.220Z,99728.75
2023-03-06T01:45:14.504Z,99727.515625
2023-03-06T01:46:16.583Z,99729.89453125
2023-03-06T01:47:14.514Z,99725.80859375
2023-03-06T01:48:14.231Z,99725.97265625
2023-03-06T01:49:14.189Z,99724.01953125
2023-03-06T01:50:14.499Z,99722.76953125
2023-03-06T01:51:14.254Z,99724.1953125
2023-03-06T01:52:14.241Z,99719.98046875
2023-03-06T01:53:14.259Z,99722.29296875
2023-03-06T01:54:14.197Z,99720.27734375
2023-03-06T01:55:14.508Z,99720.3203125
2023-03-06T01:56:14.286Z,99718.7109375
2023-03-06T01:57:16.613Z,99717.26171875
2023-03-06T01:58:14.188Z,99719.79296875
2023-03-06T01:59:14.173Z,99717.07421875
2023-03-06T02:00:14.521Z,99717.50390625
2023-03-06T02:01:14.294Z,99717.58984375
2023-03-06T02:02:14.518Z,99715.5859375
2023-03-06T02:03:14.156Z,99715.14453125
2023-03-06T02:04:14.150Z,99716.453125
2023-03-06T02:05:14.517Z,99713.26171875
2023-03-06T02:06:14.255Z,99716.12109375
2023-03-06T02:07:14.216Z,99712.98828125
2023-03-06T02:08:16.551Z,99710.98828125
2023-03-06T02:09:14.195Z,99711.91796875
2023-03-06T02:10:14.501Z,99706.73828125
2023-03-06T02:11:14.225Z,99707.453125
2023-03-06T02:12:14.297Z,99708.734375
2023-03-06T02:13:14.182Z,99706.85546875
2023-03-06T02:14:14.279Z,99706.12890625
2023-03-06T02:15:14.279Z,99705.26171875
2023-03-06T02:16:14.249Z,99704.66796875
2023-03-06T02:17:14.547Z,99704.390625
2023-03-06T02:18:14.168Z,99706.75
2023-03-06T02:19:16.495Z,99699.6484375
2023-03-06T02:20:14.226Z,99702.78515625
2023-03-06T02:21:14.516Z,99701.7578125
2023-03-06T02:22:14.284Z,99698.8984375
2023-03-06T02:23:14.232Z,99697.171875
2023-03-06T02:24:14.292Z,99699.01171875
2023-03-06T02:25:14.177Z,99698.56640625
2023-03-06T02:26:14.502Z,99695.48046875
2023-03-06T02:27:14.207Z,99697.109375
2023-03-06T02:28:14.217Z,99698.81640625
2023-03-06T02:29:14.190Z,99698.234375
2023-03-06T02:30:16.538Z,99696.5546875
2023-03-06T02:31:14.688Z,99698.6484375
2023-03-06T02:32:14.243Z,99697.72265625
2023-03-06T02:33:14.266Z,99692.859375
2023-03-06T02:34:14.255Z,99692.95703125
2023-03-06T02:35:14.261Z,99692.4375
2023-03-06T02:36:14.270Z,99687.65234375
2023-03-06T02:37:14.513Z,99685.86328125
2023-03-06T02:38:14.184Z,99687.1328125
2023-03-06T02:39:14.190Z,99685.9453125
2023-03-06T02:40:14.156Z,99684.65625
2023-03-06T02:41:16.688Z,99681.7421875
2023-03-06T02:42:14.515Z,99684.11328125
2023-03-06T02:43:14.224Z,99679.16796875
2023-03-06T02:44:14.294Z,99681.11328125
2023-03-06T02:45:14.220Z,99676.36328125
2023-03-06T02:46:14.362Z,99673.0625
2023-03-06T02:47:14.206Z,99673.5546875
2023-03-06T02:48:14.529Z,99672.94921875
2023-03-06T02:49:14.172Z,99668.953125
2023-03-06T02:50:14.233Z,99667.53125
2023-03-06T02:51:14.276Z,99667.26171875
2023-03-06T02:52:16.492Z,99666.2734375
2023-03-06T02:53:14.511Z,99665.8984375
2023-03-06T02:54:14.255Z,99665.0234375
2023-03-06T02:55:14.156Z,99662.19921875
2023-03-06T02:56:14.154Z,99663.4453125
2023-03-06T02:57:14.266Z,99661.96484375
2023-03-06T02:58:14.515Z,99664.88671875
2023-03-06T02:59:14.227Z,99661.19921875
2023-03-06T03:00:14.186Z,99662.67578125
2023-03-06T03:01:14.221Z,99659.2265625
2023-03-06T03:02:14.501Z,99658.8671875
2023-03-06T03:03:18.969Z,99663.69140625
2023-03-06T03:04:14.419Z,99661.26953125
2023-03-06T03:05:14.157Z,99661.8828125
2023-03-06T03:06:14.146Z,99659.734375
2023-03-06T03:07:14.157Z,99656.71484375
2023-03-06T03:08:14.503Z,99657.5390625
2023-03-06T03:09:14.270Z,99657.46484375
2023-03-06T03:10:14.187Z,99657.57421875
2023-03-06T03:11:14.137Z,99658.171875
2023-03-06T03:12:14.223Z,99657.08203125
2023-03-06T03:13:14.504Z,99653.6640625
2023-03-06T03:14:16.593Z,99654.578125
2023-03-06T03:15:14.171Z,99654.66796875
2023-03-06T03:16:14.240Z,99654.390625
2023-03-06T03:17:14.510Z,99658.19921875
2023-03-06T03:18:14.497Z,99658.14453125
2023-03-06T03:19:14.278Z,99652.62109375
2023-03-06T03:20:14.136Z,99657.19921875
2023-03-06T03:21:14.181Z,99654.25390625
2023-03-06T03:22:14.186Z,99654.85546875
2023-03-06T03:23:14.507Z,99656.59765625
2023-03-06T03:24:14.248Z,99653.07421875
2023-03-06T03:25:16.599Z,99652.96484375
2023-03-06T03:26:14.283Z,99655.734375
2023-03-06T03:27:14.188Z,99653.6875
2023-03-06T03:28:14.501Z,99656.5625
2023-03-06T03:29:14.261Z,99657.015625
2023-03-06T03:30:14.247Z,99656.62890625
2023-03-06T03:31:14.272Z,99653.87109375
2023-03-06T03:32:14.584Z,99657.9375
2023-03-06T03:33:14.530Z,99655.5234375
2023-03-06T03:34:14.237Z,99652.2890625
2023-03-06T03:35:14.271Z,99655.04296875
2023-03-06T03:36:16.561Z,99654.58203125
2023-03-06T03:37:14.228Z,99651.171875
2023-03-06T03:38:14.504Z,99656.32421875
2023-03-06T03:39:14.280Z,99649.59375
2023-03-06T03:40:15.262Z,99651.98046875
2023-03-06T03:41:14.208Z,99649.359375
2023-03-06T03:42:14.297Z,99650.375
2023-03-06T03:43:14.508Z,99649.1875
2023-03-06T03:44:14.156Z,99648.328125
2023-03-06T03:45:14.236Z,99645.19140625
2023-03-06T03:46:14.313Z,99645.78515625
2023-03-06T03:47:18.969Z,99648.70703125
2023-03-06T03:48:14.504Z,99645.51953125
2023-03-06T03:49:14.231Z,99645.359375
2023-03-06T03:50:14.270Z,99641.58203125
2023-03-06T03:51:14.144Z,99645.3046875
2023-03-06T03:52:14.232Z,99642.27734375
2023-03-06T03:53:14.517Z,99645.67578125
2023-03-06T03:54:14.279Z,99648.8671875
2023-03-06T03:55:14.159Z,99647.92578125
2023-03-06T03:56:14.263Z,99641.4921875
2023-03-06T03:57:14.224Z,99640.984375
2023-03-06T03:58:18.910Z,99638.328125
2023-03-06T03:59:14.228Z,99638.33984375
2023-03-06T04:00:14.299Z,99637.75
2023-03-06T04:01:14.155Z,99636.7734375
2023-03-06T04:02:14.571Z,99633.203125
2023-03-06T04:03:14.502Z,99630.4609375
2023-03-06T04:04:14.178Z,99630.83203125
2023-03-06T04:05:14.283Z,99628.77734375
2023-03-06T04:06:14.178Z,99626.515625
2023-03-06T04:07:14.170Z,99628.16015625
2023-03-06T04:08:14.514Z,99622.48828125
2023-03-06T04:09:16.575Z,99622.60546875
2023-03-06T04:10:15.252Z,99622.19921875
2023-03-06T04:11:14.200Z,99621.05859375
2023-03-06T04:12:14.193Z,99619.0703125
2023-03-06T04:13:14.164Z,99619.83203125
2023-03-06T04:14:14.506Z,99621.32421875
2023-03-06T04:15:14.183Z,99623.41015625
2023-03-06T04:16:14.236Z,99620.98046875
2023-03-06T04:17:14.269Z,99620.06640625
2023-03-06T04:18:14.501Z,99617.19140625
2023-03-06T04:19:14.509Z,99617.296875
2023-03-06T04:20:16.573Z,99618.77734375
2023-03-06T04:21:14.197Z,99616.5625
2023-03-06T04:22:14.171Z,99616.40625
2023-03-06T04:23:14.281Z,99612.7734375
2023-03-06T04:24:14.500Z,99611.1640625
2023-03-06T04:25:14.247Z,99608.9453125
2023-03-06T04:26:14.242Z,99607.171875
2023-03-06T04:27:14.258Z,99604.56640625
2023-03-06T04:28:14.798Z,99605.015625
2023-03-06T04:29:14.516Z,99600.24609375
2023-03-06T04:30:15.152Z,99600.7421875
2023-03-06T04:31:16.564Z,99604.046875
2023-03-06T04:32:14.304Z,99603.140625
2023-03-06T04:33:14.505Z,99603.6640625
2023-03-06T04:34:14.507Z,99599.40625
2023-03-06T04:35:14.222Z,99603.44921875
2023-03-06T04:36:14.287Z,99604.5
2023-03-06T04:37:14.184Z,99601.03515625
2023-03-06T04:38:14.242Z,99600.48046875
2023-03-06T04:39:14.646Z,99599.61328125
2023-03-06T04:40:14.176Z,99598.83984375
2023-03-06T04:41:14.113Z,99597.20703125
2023-03-06T04:42:16.495Z,99596.02734375
2023-03-06T04:43:14.301Z,99599.703125
2023-03-06T04:44:14.502Z,99601.046875
2023-03-06T04:45:14.210Z,99594.96484375
2023-03-06T04:46:14.163Z,99594.484375
2023-03-06T04:47:14.294Z,99596.4140625
2023-03-06T04:48:14.523Z,99595.83203125
2023-03-06T04:49:14.509Z,99595.62890625
2023-03-06T04:50:14.199Z,99592.16796875
2023-03-06T04:51:14.264Z,99595.421875
2023-03-06T04:52:14.258Z,99595.20703125
2023-03-06T04:53:16.602Z,99589.859375
2023-03-06T04:54:14.510Z,99593.1640625
2023-03-06T04:55:14.272Z,99588.84375
2023-03-06T04:56:14.186Z,99587.96875
2023-03-06T04:57:14.331Z,99589.5859375
2023-03-06T04:58:14.229Z,99589.3671875
2023-03-06T04:59:14.509Z,99587.30859375
2023-03-06T05:00:14.228Z,99587.09375
2023-03-06T05:01:14.236Z,99582.07421875
2023-03-06T05:02:14.271Z,99585.03515625
2023-03-06T05:03:14.504Z,99584.3203125
2023-03-06T05:04:18.920Z,99585.88671875
2023-03-06T05:05:14.157Z,99583.50390625
2023-03-06T05:06:14.155Z,99580.53515625
2023-03-06T05:07:14.141Z,99582.91796875
2023-03-06T05:08:14.274Z,99581.37109375
2023-03-06T05:09:14.507Z,99581.77734375
2023-03-06T05:10:15.085Z,99581.02734375
2023-03-06T05:11:14.118Z,99578.046875
2023-03-06T05:12:14.277Z,99580.140625
2023-03-06T05:13:14.274Z,99577.42578125
2023-03-06T05:14:14.284Z,99576.125
2023-03-06T05:15:16.576Z,99577.6640625
2023-03-06T05:16:14.339Z,99579.50390625
2023-03-06T05:17:14.787Z,99578.49609375
2023-03-06T05:18:14.512Z,99574.5
2023-03-06T05:19:14.294Z,99578.4921875
2023-03-06T05:20:14.499Z,99574.4296875
2023-03-06T05:21:14.148Z,99573.95703125
2023-03-06T05:22:14.166Z,99574.6484375
2023-03-06T05:23:14.275Z,99573.953125
2023-03-06T05:24:14.145Z,99573.7890625
2023-03-06T05:25:14.502Z,99571.77734375
2023-03-06T05:26:16.594Z,99574.46484375
2023-03-06T05:27:16.824Z,99573.01171875
2023-03-06T05:28:14.228Z,99574.140625
2023-03-06T05:29:14.212Z,99573
2023-03-06T05:30:14.214Z,99573.9140625
2023-03-06T05:31:14.669Z,99570.578125
2023-03-06T05:32:14.464Z,99569.12109375
2023-03-06T05:33:14.501Z,99572.36328125
2023-03-06T05:34:14.249Z,99568.76953125
2023-03-06T05:35:14.158Z,99574.44140625
2023-03-06T05:36:14.285Z,99567.359375
2023-03-06T05:37:16.594Z,99570.71875
2023-03-06T05:38:14.829Z,99569.73046875
2023-03-06T05:39:14.168Z,99569.359375
2023-03-06T05:40:14.389Z,99567.640625
2023-03-06T05:41:14.210Z,99570.015625
2023-03-06T05:42:14.515Z,99571.74609375
2023-03-06T05:43:14.181Z,99572.4453125
2023-03-06T05:44:14.253Z,99569.69921875
2023-03-06T05:45:14.319Z,99569.53515625
2023-03-06T05:46:14.265Z,99573.0859375
2023-03-06T05:47:14.173Z,99572.79296875
2023-03-06T05:48:17.038Z,99566.7890625
2023-03-06T05:49:14.265Z,99565.6796875
2023-03-06T05:50:14.207Z,99567.4453125
2023-03-06T05:51:14.151Z,99567.39453125
2023-03-06T05:52:14.514Z,99564.7109375
2023-03-06T05:53:14.245Z,99563.48046875
2023-03-06T05:54:14.280Z,99566.51953125
2023-03-06T05:55:14.293Z,99566.84765625
2023-03-06T05:56:14.291Z,99562.08984375
2023-03-06T05:57:14.507Z,99566.41796875
2023-03-06T05:58:14.253Z,99568.21875
2023-03-06T05:59:16.573Z,99568.10546875
2023-03-06T06:00:14.220Z,99564.39453125
2023-03-06T06:01:14.292Z,99565.14453125
2023-03-06T06:02:14.546Z,99566.609375
2023-03-06T06:03:14.510Z,99563.17578125
2023-03-06T06:04:14.293Z,99562.33984375
2023-03-06T06:05:14.207Z,99563.52734375
2023-03-06T06:06:14.299Z,99564.4609375
2023-03-06T06:07:14.511Z,99562.0546875
2023-03-06T06:08:14.259Z,99565.41796875
2023-03-06T06:09:14.244Z,99562.390625
2023-03-06T06:10:19.945Z,99563.08203125
2023-03-06T06:11:14.139Z,99561.13671875
2023-03-06T06:12:14.533Z,99563.359375
2023-03-06T06:13:14.233Z,99562.859375
2023-03-06T06:14:14.282Z,99564.4296875
2023-03-06T06:15:14.252Z,99563.61328125
2023-03-06T06:16:14.320Z,99562.44140625
2023-03-06T06:17:14.284Z,99564.83203125
2023-03-06T06:18:14.507Z,99563.26953125
2023-03-06T06:19:14.184Z,99561.76953125
2023-03-06T06:20:14.220Z,99563.53125
2023-03-06T06:21:16.538Z,99564.1328125
2023-03-06T06:22:14.280Z,99563.125
2023-03-06T06:23:14.501Z,99561.6171875
2023-03-06T06:24:14.134Z,99564.58203125
2023-03-06T06:25:14.228Z,99560.9140625
2023-03-06T06:26:14.192Z,99564.5234375
2023-03-06T06:27:14.206Z,99563.5546875
2023-03-06T06:28:14.247Z,99564.76171875
2023-03-06T06:29:14.504Z,99561.84375
2023-03-06T06:30:14.160Z,99563.96875
2023-03-06T06:31:14.255Z,99566.3359375
2023-03-06T06:32:16.619Z,99567.69921875
2023-03-06T06:33:14.511Z,99564.12890625
2023-03-06T06:34:14.171Z,99561.69140625
2023-03-06T06:35:14.291Z,99569.55859375
2023-03-06T06:36:14.265Z,99566.64453125
2023-03-06T06:37:14.284Z,99568.10546875
2023-03-06T06:38:14.279Z,99568.2578125
2023-03-06T06:39:14.498Z,99571
2023-03-06T06:40:15.257Z,99569.80859375
2023-03-06T06:41:42.633Z,99573.328125
2023-03-06T06:42:29.402Z,99573.1640625
2023-03-06T06:43:16.482Z,99575.265625
2023-03-06T06:44:14.255Z,99569.9765625
2023-03-06T06:45:14.495Z,99570.46875
2023-03-06T06:46:49.640Z,99564.8046875
2023-03-06T06:47:24.151Z,99574.1484375
2023-03-06T06:48:16.597Z,99571.3515625
2023-03-06T06:49:14.244Z,99573.01171875
2023-03-06T06:50:14.503Z,99573.19140625
2023-03-06T06:51:14.186Z,99569.57421875
2023-03-06T06:52:14.293Z,99568.8203125
2023-03-06T06:53:14.260Z,99570.5625
2023-03-06T06:54:16.596Z,99569.21484375
2023-03-06T06:55:14.524Z,99567.74609375
2023-03-06T06:56:14.158Z,99568.234375
2023-03-06T06:57:14.286Z,99567.375
2023-03-06T06:58:14.338Z,99568.1875
2023-03-06T06:59:17.227Z,99566.5078125
2023-03-06T07:00:14.512Z,99566.94921875
2023-03-06T07:01:14.332Z,99569.69140625
2023-03-06T07:02:14.150Z,99567.859375
2023-03-06T07:03:14.405Z,99567.31640625
2023-03-06T07:04:14.304Z,99567.81640625
2023-03-06T07:05:20.870Z,99566.15234375
2023-03-06T07:06:14.282Z,99569.37890625
2023-03-06T07:07:14.292Z,99566.95703125
2023-03-06T07:08:14.266Z,99570.1953125
2023-03-06T07:09:14.272Z,99567.94140625
2023-03-06T07:10:14.762Z,99570.52734375
2023-03-06T07:11:14.129Z,99570
2023-03-06T07:12:14.282Z,99568.80859375
2023-03-06T07:13:14.296Z,99568.984375
2023-03-06T07:14:14.168Z,99568.58984375
2023-03-06T07:15:14.191Z,99568.16796875
2023-03-06T07:16:19.070Z,99564.09375
2023-03-06T07:17:14.812Z,99565.30078125
2023-03-06T07:18:14.519Z,99566.09765625
2023-03-06T07:19:14.232Z,99570.13671875
2023-03-06T07:20:14.281Z,99566.1796875
2023-03-06T07:21:14.516Z,99567.90234375
2023-03-06T07:22:14.184Z,99568.1640625
2023-03-06T07:23:14.208Z,99564.80859375
2023-03-06T07:24:14.264Z,99562.9296875
2023-03-06T07:25:14.280Z,99563.4921875
2023-03-06T07:26:14.789Z,99561.9453125
2023-03-06T07:27:16.474Z,99564.421875
2023-03-06T07:28:14.229Z,99564.1171875
2023-03-06T07:29:14.133Z,99563.109375
2023-03-06T07:30:14.295Z,99566.17578125
2023-03-06T07:31:14.731Z,99564.44140625
2023-03-06T07:32:14.355Z,99565.8515625
2023-03-06T07:33:14.299Z,99566.046875
2023-03-06T07:34:14.540Z,99565.34375
2023-03-06T07:35:20.081Z,99564.26171875
2023-03-06T07:36:14.291Z,99567.03515625
2023-03-06T07:37:14.292Z,99565.76171875
2023-03-06T07:38:16.625Z,99566.46875
2023-03-06T07:39:14.227Z,99564.05859375
2023-03-06T07:40:15.147Z,99566.98046875
2023-03-06T07:41:14.203Z,99558.01171875
2023-03-06T07:42:14.130Z,99560.15234375
2023-03-06T07:43:19.393Z,99555.484375
2023-03-06T07:44:14.162Z,99554.8203125
2023-03-06T07:45:14.168Z,99560.68359375
2023-03-06T07:46:14.369Z,99557.0078125
2023-03-06T07:47:14.286Z,99558.16015625
2023-03-06T07:48:14.299Z,99560.2421875
2023-03-06T07:49:16.542Z,99560.30078125
2023-03-06T07:50:14.251Z,99560.09765625
2023-03-06T07:51:14.292Z,99561.30078125
2023-03-06T07:52:14.508Z,99558.89453125
2023-03-06T07:53:14.267Z,99556.51953125
2023-03-06T07:54:14.185Z,99560.4296875
2023-03-06T07:55:14.228Z,99563.74609375
2023-03-06T07:56:14.215Z,99563.62890625
2023-03-06T07:57:14.531Z,99562.2109375
2023-03-06T07:58:14.170Z,99561.17578125
2023-03-06T07:59:14.181Z,99556.3359375
2023-03-06T08:00:16.496Z,99555.98046875
2023-03-06T08:01:14.233Z,99556.203125
2023-03-06T08:02:14.249Z,99557.328125
2023-03-06T08:03:14.533Z,99560.3125
2023-03-06T08:04:14.604Z,99560.1640625
2023-03-06T08:05:14.226Z,99559.44921875
2023-03-06T08:06:14.314Z,99557.10546875
2023-03-06T08:07:14.218Z,99553.96875
2023-03-06T08:08:14.512Z,99553.640625
2023-03-06T08:09:14.244Z,99558.32421875
2023-03-06T08:10:15.263Z,99558.8828125
2023-03-06T08:11:16.690Z,99559.45703125
2023-03-06T08:12:15.775Z,99560.2265625
2023-03-06T08:13:14.311Z,99558.66015625
2023-03-06T08:14:14.258Z,99560.1484375
2023-03-06T08:15:14.268Z,99561.41796875
2023-03-06T08:16:14.239Z,99562.60546875
2023-03-06T08:17:14.158Z,99565.359375
2023-03-06T08:18:14.192Z,99563.859375
2023-03-06T08:19:14.521Z,99570.7890625
2023-03-06T08:20:14.243Z,99573.08203125
2023-03-06T08:21:14.271Z,99568.15234375
2023-03-06T08:22:16.449Z,99568.79296875
2023-03-06T08:23:14.261Z,99577.7890625
2023-03-06T08:24:14.516Z,99576.5390625
2023-03-06T08:25:14.300Z,99582.16015625
2023-03-06T08:26:14.149Z,99576.89453125
2023-03-06T08:27:14.268Z,99575.5234375
2023-03-06T08:28:14.290Z,99578.640625
2023-03-06T08:29:14.281Z,99572.80078125
2023-03-06T08:30:14.707Z,99580.84375
2023-03-06T08:31:14.321Z,99571.90234375
2023-03-06T08:32:14.183Z,99571.703125
2023-03-06T08:33:16.532Z,99573.90625
2023-03-06T08:34:14.280Z,99573.17578125
2023-03-06T08:35:14.189Z,99573.78515625
2023-03-06T08:36:14.235Z,99577.8515625
2023-03-06T08:37:14.227Z,99568.390625
2023-03-06T08:38:14.266Z,99567.6015625
2023-03-06T08:39:14.287Z,99572.1953125
2023-03-06T08:40:15.257Z,99568.29296875
2023-03-06T08:41:14.214Z,99575.6640625
2023-03-06T08:42:14.121Z,99575.03515625
2023-03-06T08:43:14.443Z,99576.140625
2023-03-06T08:44:16.520Z,99574.125
2023-03-06T08:45:14.556Z,99574.2265625
2023-03-06T08:46:14.281Z,99572.375
2023-03-06T08:47:14.241Z,99574.265625
2023-03-06T08:48:14.267Z,99578.74609375
2023-03-06T08:49:14.516Z,99575.21484375
2023-03-06T08:50:14.292Z,99578.58984375
2023-03-06T08:51:14.513Z,99578.7109375
2023-03-06T08:52:14.277Z,99579.22265625
2023-03-06T08:53:14.205Z,99580.921875
2023-03-06T08:54:14.262Z,99581.453125
2023-03-06T08:55:16.538Z,99586.359375
2023-03-06T08:56:14.239Z,99586.125
2023-03-06T08:57:14.204Z,99587.05078125
2023-03-06T08:58:14.241Z,99588.78125
2023-03-06T08:59:14.293Z,99586.234375
2023-03-06T09:00:14.334Z,99590.94140625
2023-03-06T09:01:14.524Z,99595.6953125
2023-03-06T09:02:14.302Z,99592.4921875
2023-03-06T09:03:14.268Z,99596.65234375
2023-03-06T09:04:14.280Z,99593.1328125
2023-03-06T09:05:14.521Z,99591.5
2023-03-06T09:06:18.985Z,99586.44921875
2023-03-06T09:07:14.224Z,99584.9921875
2023-03-06T09:08:14.267Z,99586.18359375
2023-03-06T09:09:14.184Z,99586.84375
2023-03-06T09:10:14.268Z,99585.90625
2023-03-06T09:11:14.516Z,99586.02734375
2023-03-06T09:12:14.211Z,99585.33203125
2023-03-06T09:13:14.280Z,99584.296875
2023-03-06T09:14:14.175Z,99583.4609375
2023-03-06T09:15:14.206Z,99584.125
2023-03-06T09:16:14.638Z,99585.90625
2023-03-06T09:17:16.612Z,99586.42578125
2023-03-06T09:18:14.263Z,99590.1953125
2023-03-06T09:19:14.252Z,99587.4921875
2023-03-06T09:20:14.510Z,99587.484375
2023-03-06T09:21:14.506Z,99582.91015625
2023-03-06T09:22:14.154Z,99582.84375
2023-03-06T09:23:14.267Z,99583.39453125
2023-03-06T09:24:14.266Z,99580.19140625
2023-03-06T09:25:14.251Z,99577.2734375
2023-03-06T09:26:14.527Z,99581.48046875
2023-03-06T09:27:14.155Z,99576.1953125
2023-03-06T09:28:16.568Z,99583.765625
2023-03-06T09:29:14.296Z,99588.83203125
2023-03-06T09:30:14.231Z,99592.01171875
2023-03-06T09:31:14.351Z,99595.890625
2023-03-06T09:32:14.374Z,99594.96875
2023-03-06T09:33:14.175Z,99591.609375
2023-03-06T09:34:14.223Z,99592.203125
2023-03-06T09:35:14.287Z,99597.796875
2023-03-06T09:36:14.272Z,99592.96484375
2023-03-06T09:37:15.773Z,99590.59375
2023-03-06T09:38:14.164Z,99594.87890625
2023-03-06T09:39:16.609Z,99595.2109375
2023-03-06T09:40:15.263Z,99593.3828125
2023-03-06T09:41:14.145Z,99596.66015625
2023-03-06T09:42:14.204Z,99591.8671875
2023-03-06T09:43:14.254Z,99595.9609375
2023-03-06T09:44:14.231Z,99598.94140625
2023-03-06T09:45:14.262Z,99596.87109375
2023-03-06T09:46:14.622Z,99591.1796875
2023-03-06T09:47:14.167Z,99590.7265625
2023-03-06T09:48:14.291Z,99586.1796875
2023-03-06T09:49:14.173Z,99588.72265625
2023-03-06T09:50:16.561Z,99591.33203125
2023-03-06T09:51:14.190Z,99595.53125
2023-03-06T09:52:14.243Z,99590.66015625
2023-03-06T09:53:14.276Z,99591.875
2023-03-06T09:54:14.246Z,99595.2578125
2023-03-06T09:55:14.275Z,99588.90625
2023-03-06T09:56:14.265Z,99593.1953125
2023-03-06T09:57:14.267Z,99592.6484375
2023-03-06T09:58:14.261Z,99592.04296875
2023-03-06T09:59:14.171Z,99590.33984375
2023-03-06T10:00:14.283Z,99590.85546875
2023-03-06T10:01:16.612Z,99593.4296875
2023-03-06T10:02:14.430Z,99586.04296875
2023-03-06T10:03:14.388Z,99589.9375
2023-03-06T10:04:14.285Z,99590.140625
2023-03-06T10:05:14.328Z,99586.23046875
2023-03-06T10:06:14.514Z,99590.6875
2023-03-06T10:07:14.226Z,99589.5546875
2023-03-06T10:08:14.293Z,99587.81640625
2023-03-06T10:09:14.251Z,99590.47265625
2023-03-06T10:10:14.320Z,99586.9375
2023-03-06T10:11:14.563Z,99590.62890625
2023-03-06T10:12:16.466Z,99589.3203125
2023-03-06T10:13:14.221Z,99592.53125
2023-03-06T10:14:14.250Z,99595.78515625